sensor_id;sensor_type;location;lat;lon;timestamp;P1;durP1;ratioP1;P2;durP2;ratioP2
37047;SDS011;23227;48.780;9.210;2024-03-17T00:02:06;10.20;;;2.60;;
37047;SDS011;23227;48.780;9.210;2024-03-17T00:05:07;6.67;;;1.80;;
37047;SDS011;23227;48.780;9.210;2024-03-17T00:08:08;7.17;;;1.80;;
37047;SDS011;23227;48.780;9.210;2024-03-17T00:11:11;6.43;;;2.43;;
37047;SDS011;23227;48.780;9.210;2024-03-17T00:14:12;7.27;;;2.10;;
37047;SDS011;23227;48.780;9.210;2024-03-17T00:17:13;8.13;;;2.57;;
37047;SDS011;23227;48.780;9.210;2024-03-17T00:20:16;7.93;;;2.00;;
37047;SDS011;23227;48.780;9.210;2024-03-17T00:23:21;4.90;;;2.00;;
37047;SDS011;23227;48.780;9.210;2024-03-17T00:26:23;7.83;;;1.90;;
37047;SDS011;23227;48.780;9.210;2024-03-17T00:29:25;9.07;;;1.92;;
37047;SDS011;23227;48.780;9.210;2024-03-17T00:32:28;8.65;;;1.63;;
37047;SDS011;23227;48.780;9.210;2024-03-17T00:35:30;7.47;;;2.07;;
37047;SDS011;23227;48.780;9.210;2024-03-17T00:38:31;3.67;;;1.80;;
37047;SDS011;23227;48.780;9.210;2024-03-17T00:41:33;7.77;;;2.10;;
37047;SDS011;23227;48.780;9.210;2024-03-17T00:44:35;4.95;;;1.48;;
37047;SDS011;23227;48.780;9.210;2024-03-17T00:47:36;6.00;;;1.80;;
37047;SDS011;23227;48.780;9.210;2024-03-17T00:50:37;6.73;;;2.17;;
37047;SDS011;23227;48.780;9.210;2024-03-17T00:53:38;8.93;;;2.00;;
37047;SDS011;23227;48.780;9.210;2024-03-17T00:56:41;2.90;;;1.70;;
37047;SDS011;23227;48.780;9.210;2024-03-17T00:59:42;12.73;;;2.03;;
37047;SDS011;23227;48.780;9.210;2024-03-17T01:02:44;9.17;;;1.37;;
37047;SDS011;23227;48.780;9.210;2024-03-17T01:05:46;5.03;;;1.67;;
37047;SDS011;23227;48.780;9.210;2024-03-17T01:08:48;6.27;;;1.80;;
37047;SDS011;23227;48.780;9.210;2024-03-17T01:11:53;7.00;;;1.80;;
37047;SDS011;23227;48.780;9.210;2024-03-17T01:14:53;8.73;;;2.03;;
37047;SDS011;23227;48.780;9.210;2024-03-17T01:17:55;5.20;;;1.40;;
37047;SDS011;23227;48.780;9.210;2024-03-17T01:20:57;4.53;;;1.77;;
37047;SDS011;23227;48.780;9.210;2024-03-17T01:23:58;4.47;;;1.43;;
37047;SDS011;23227;48.780;9.210;2024-03-17T01:27:01;6.27;;;1.40;;
37047;SDS011;23227;48.780;9.210;2024-03-17T01:30:03;4.13;;;1.63;;
37047;SDS011;23227;48.780;9.210;2024-03-17T01:33:05;8.73;;;1.58;;
37047;SDS011;23227;48.780;9.210;2024-03-17T01:36:06;6.57;;;1.60;;
37047;SDS011;23227;48.780;9.210;2024-03-17T01:39:08;4.13;;;1.20;;
37047;SDS011;23227;48.780;9.210;2024-03-17T01:42:10;3.77;;;1.20;;
37047;SDS011;23227;48.780;9.210;2024-03-17T01:45:20;4.60;;;1.20;;
37047;SDS011;23227;48.780;9.210;2024-03-17T01:48:27;6.13;;;1.90;;
37047;SDS011;23227;48.780;9.210;2024-03-17T01:51:28;3.77;;;1.33;;
37047;SDS011;23227;48.780;9.210;2024-03-17T01:54:30;5.20;;;1.57;;
37047;SDS011;23227;48.780;9.210;2024-03-17T01:57:32;4.00;;;1.47;;
37047;SDS011;23227;48.780;9.210;2024-03-17T02:00:34;4.43;;;1.40;;
37047;SDS011;23227;48.780;9.210;2024-03-17T02:03:36;2.92;;;1.05;;
37047;SDS011;23227;48.780;9.210;2024-03-17T02:06:38;10.37;;;1.90;;
37047;SDS011;23227;48.780;9.210;2024-03-17T02:09:39;3.23;;;1.00;;
37047;SDS011;23227;48.780;9.210;2024-03-17T02:12:42;5.00;;;1.50;;
37047;SDS011;23227;48.780;9.210;2024-03-17T02:15:44;7.75;;;1.55;;
37047;SDS011;23227;48.780;9.210;2024-03-17T02:18:46;2.27;;;1.10;;
37047;SDS011;23227;48.780;9.210;2024-03-17T02:21:47;3.07;;;1.20;;
37047;SDS011;23227;48.780;9.210;2024-03-17T02:24:50;1.20;;;0.80;;
37047;SDS011;23227;48.780;9.210;2024-03-17T02:27:51;2.63;;;1.33;;
37047;SDS011;23227;48.780;9.210;2024-03-17T02:30:53;2.57;;;0.83;;
37047;SDS011;23227;48.780;9.210;2024-03-17T02:33:53;2.20;;;0.83;;
37047;SDS011;23227;48.780;9.210;2024-03-17T02:36:55;5.13;;;1.80;;
37047;SDS011;23227;48.780;9.210;2024-03-17T02:39:57;2.87;;;0.80;;
37047;SDS011;23227;48.780;9.210;2024-03-17T02:42:59;4.90;;;1.58;;
37047;SDS011;23227;48.780;9.210;2024-03-17T02:46:00;6.87;;;1.60;;
37047;SDS011;23227;48.780;9.210;2024-03-17T02:49:04;3.13;;;1.20;;
37047;SDS011;23227;48.780;9.210;2024-03-17T02:52:07;2.53;;;1.10;;
37047;SDS011;23227;48.780;9.210;2024-03-17T02:55:11;4.37;;;1.40;;
37047;SDS011;23227;48.780;9.210;2024-03-17T02:58:12;3.38;;;1.20;;
37047;SDS011;23227;48.780;9.210;2024-03-17T03:01:14;4.60;;;1.53;;
37047;SDS011;23227;48.780;9.210;2024-03-17T03:04:16;3.03;;;0.90;;
37047;SDS011;23227;48.780;9.210;2024-03-17T03:07:18;2.73;;;1.10;;
37047;SDS011;23227;48.780;9.210;2024-03-17T03:10:20;4.63;;;1.30;;
37047;SDS011;23227;48.780;9.210;2024-03-17T03:13:22;3.80;;;1.40;;
37047;SDS011;23227;48.780;9.210;2024-03-17T03:16:24;2.83;;;1.63;;
37047;SDS011;23227;48.780;9.210;2024-03-17T03:19:26;1.70;;;0.97;;
37047;SDS011;23227;48.780;9.210;2024-03-17T03:22:28;3.50;;;1.10;;
37047;SDS011;23227;48.780;9.210;2024-03-17T03:25:31;4.43;;;1.20;;
37047;SDS011;23227;48.780;9.210;2024-03-17T03:28:32;2.30;;;0.88;;
37047;SDS011;23227;48.780;9.210;2024-03-17T03:31:34;2.37;;;1.10;;
37047;SDS011;23227;48.780;9.210;2024-03-17T03:34:36;2.90;;;0.80;;
37047;SDS011;23227;48.780;9.210;2024-03-17T03:37:39;2.88;;;0.90;;
37047;SDS011;23227;48.780;9.210;2024-03-17T03:40:42;3.07;;;1.30;;
37047;SDS011;23227;48.780;9.210;2024-03-17T03:43:44;2.63;;;1.00;;
37047;SDS011;23227;48.780;9.210;2024-03-17T03:46:47;2.70;;;1.08;;
37047;SDS011;23227;48.780;9.210;2024-03-17T03:49:49;3.30;;;1.00;;
37047;SDS011;23227;48.780;9.210;2024-03-17T03:52:51;2.10;;;0.83;;
37047;SDS011;23227;48.780;9.210;2024-03-17T03:55:53;1.50;;;0.80;;
37047;SDS011;23227;48.780;9.210;2024-03-17T03:58:55;5.88;;;1.83;;
37047;SDS011;23227;48.780;9.210;2024-03-17T04:01:57;2.37;;;0.87;;
37047;SDS011;23227;48.780;9.210;2024-03-17T04:04:58;1.40;;;0.70;;
37047;SDS011;23227;48.780;9.210;2024-03-17T04:08:00;1.30;;;0.90;;
37047;SDS011;23227;48.780;9.210;2024-03-17T04:11:04;3.30;;;0.80;;
37047;SDS011;23227;48.780;9.210;2024-03-17T04:14:05;3.17;;;1.13;;
37047;SDS011;23227;48.780;9.210;2024-03-17T04:17:07;2.87;;;1.00;;
37047;SDS011;23227;48.780;9.210;2024-03-17T04:20:09;4.30;;;1.13;;
37047;SDS011;23227;48.780;9.210;2024-03-17T04:23:14;3.53;;;1.07;;
37047;SDS011;23227;48.780;9.210;2024-03-17T04:26:17;1.80;;;1.17;;
37047;SDS011;23227;48.780;9.210;2024-03-17T04:29:18;2.47;;;1.08;;
37047;SDS011;23227;48.780;9.210;2024-03-17T04:32:20;2.50;;;0.80;;
37047;SDS011;23227;48.780;9.210;2024-03-17T04:35:22;3.00;;;1.03;;
37047;SDS011;23227;48.780;9.210;2024-03-17T04:38:24;1.93;;;0.90;;
37047;SDS011;23227;48.780;9.210;2024-03-17T04:41:27;1.17;;;0.80;;
37047;SDS011;23227;48.780;9.210;2024-03-17T04:47:30;3.47;;;1.00;;
37047;SDS011;23227;48.780;9.210;2024-03-17T04:50:31;2.73;;;1.03;;
37047;SDS011;23227;48.780;9.210;2024-03-17T04:53:33;2.20;;;0.80;;
37047;SDS011;23227;48.780;9.210;2024-03-17T04:56:36;1.77;;;0.90;;
37047;SDS011;23227;48.780;9.210;2024-03-17T04:59:38;2.20;;;0.97;;
37047;SDS011;23227;48.780;9.210;2024-03-17T05:02:40;1.47;;;0.77;;
37047;SDS011;23227;48.780;9.210;2024-03-17T05:05:42;1.53;;;0.60;;
37047;SDS011;23227;48.780;9.210;2024-03-17T05:08:43;1.10;;;0.90;;
37047;SDS011;23227;48.780;9.210;2024-03-17T05:11:46;2.20;;;0.80;;
37047;SDS011;23227;48.780;9.210;2024-03-17T05:14:48;1.77;;;0.68;;
37047;SDS011;23227;48.780;9.210;2024-03-17T05:17:50;1.47;;;0.70;;
37047;SDS011;23227;48.780;9.210;2024-03-17T05:20:58;2.97;;;0.93;;
37047;SDS011;23227;48.780;9.210;2024-03-17T05:24:01;1.80;;;0.73;;
37047;SDS011;23227;48.780;9.210;2024-03-17T05:27:04;1.60;;;0.80;;
37047;SDS011;23227;48.780;9.210;2024-03-17T05:30:06;1.43;;;0.80;;
37047;SDS011;23227;48.780;9.210;2024-03-17T05:33:09;2.10;;;0.90;;
37047;SDS011;23227;48.780;9.210;2024-03-17T05:36:11;2.80;;;1.10;;
37047;SDS011;23227;48.780;9.210;2024-03-17T05:39:13;1.10;;;0.83;;
37047;SDS011;23227;48.780;9.210;2024-03-17T05:42:16;1.60;;;0.90;;
37047;SDS011;23227;48.780;9.210;2024-03-17T05:45:17;1.70;;;0.73;;
37047;SDS011;23227;48.780;9.210;2024-03-17T05:48:19;1.00;;;0.60;;
37047;SDS011;23227;48.780;9.210;2024-03-17T05:51:21;1.47;;;0.87;;
37047;SDS011;23227;48.780;9.210;2024-03-17T05:54:25;1.00;;;0.90;;
37047;SDS011;23227;48.780;9.210;2024-03-17T05:57:28;3.53;;;0.93;;
37047;SDS011;23227;48.780;9.210;2024-03-17T06:00:30;2.47;;;1.00;;
37047;SDS011;23227;48.780;9.210;2024-03-17T06:03:32;1.23;;;0.80;;
37047;SDS011;23227;48.780;9.210;2024-03-17T06:06:35;1.53;;;0.77;;
37047;SDS011;23227;48.780;9.210;2024-03-17T06:09:37;1.80;;;1.03;;
37047;SDS011;23227;48.780;9.210;2024-03-17T06:12:40;1.87;;;1.03;;
37047;SDS011;23227;48.780;9.210;2024-03-17T06:15:42;2.40;;;0.85;;
37047;SDS011;23227;48.780;9.210;2024-03-17T06:18:44;1.15;;;0.70;;
37047;SDS011;23227;48.780;9.210;2024-03-17T06:21:46;1.13;;;1.03;;
37047;SDS011;23227;48.780;9.210;2024-03-17T06:24:47;1.87;;;0.80;;
37047;SDS011;23227;48.780;9.210;2024-03-17T06:27:51;1.50;;;0.90;;
37047;SDS011;23227;48.780;9.210;2024-03-17T06:30:56;0.93;;;0.80;;
37047;SDS011;23227;48.780;9.210;2024-03-17T06:34:00;1.57;;;0.63;;
37047;SDS011;23227;48.780;9.210;2024-03-17T06:37:02;0.70;;;0.60;;
37047;SDS011;23227;48.780;9.210;2024-03-17T06:40:03;1.00;;;0.60;;
37047;SDS011;23227;48.780;9.210;2024-03-17T06:43:08;1.47;;;0.80;;
37047;SDS011;23227;48.780;9.210;2024-03-17T06:46:09;1.73;;;0.73;;
37047;SDS011;23227;48.780;9.210;2024-03-17T06:49:11;1.93;;;0.97;;
37047;SDS011;23227;48.780;9.210;2024-03-17T06:52:12;1.77;;;0.70;;
37047;SDS011;23227;48.780;9.210;2024-03-17T06:55:14;3.00;;;2.50;;
37047;SDS011;23227;48.780;9.210;2024-03-17T06:58:17;6.43;;;3.23;;
37047;SDS011;23227;48.780;9.210;2024-03-17T07:01:20;4.13;;;3.33;;
37047;SDS011;23227;48.780;9.210;2024-03-17T07:04:22;6.70;;;3.40;;
37047;SDS011;23227;48.780;9.210;2024-03-17T07:07:26;3.87;;;3.20;;
37047;SDS011;23227;48.780;9.210;2024-03-17T07:10:27;4.07;;;3.60;;
37047;SDS011;23227;48.780;9.210;2024-03-17T07:13:31;4.13;;;3.13;;
37047;SDS011;23227;48.780;9.210;2024-03-17T07:16:33;3.07;;;2.37;;
37047;SDS011;23227;48.780;9.210;2024-03-17T07:19:35;2.23;;;1.60;;
37047;SDS011;23227;48.780;9.210;2024-03-17T07:22:37;2.20;;;1.53;;
37047;SDS011;23227;48.780;9.210;2024-03-17T07:25:38;4.73;;;2.13;;
37047;SDS011;23227;48.780;9.210;2024-03-17T07:28:41;4.03;;;1.67;;
37047;SDS011;23227;48.780;9.210;2024-03-17T07:31:44;1.70;;;1.03;;
37047;SDS011;23227;48.780;9.210;2024-03-17T07:34:46;1.67;;;1.20;;
37047;SDS011;23227;48.780;9.210;2024-03-17T07:40:57;1.00;;;0.80;;
37047;SDS011;23227;48.780;9.210;2024-03-17T07:44:01;2.90;;;1.07;;
37047;SDS011;23227;48.780;9.210;2024-03-17T07:47:03;1.65;;;1.10;;
37047;SDS011;23227;48.780;9.210;2024-03-17T07:50:05;2.15;;;1.45;;
37047;SDS011;23227;48.780;9.210;2024-03-17T07:56:10;1.57;;;0.90;;
37047;SDS011;23227;48.780;9.210;2024-03-17T07:59:15;2.50;;;1.07;;
37047;SDS011;23227;48.780;9.210;2024-03-17T08:02:18;1.23;;;0.90;;
37047;SDS011;23227;48.780;9.210;2024-03-17T08:05:20;1.90;;;0.87;;
37047;SDS011;23227;48.780;9.210;2024-03-17T08:08:22;0.85;;;0.70;;
37047;SDS011;23227;48.780;9.210;2024-03-17T08:11:24;1.47;;;1.00;;
37047;SDS011;23227;48.780;9.210;2024-03-17T08:14:27;1.13;;;0.90;;
37047;SDS011;23227;48.780;9.210;2024-03-17T08:17:28;1.50;;;1.00;;
37047;SDS011;23227;48.780;9.210;2024-03-17T08:20:30;1.70;;;0.90;;
37047;SDS011;23227;48.780;9.210;2024-03-17T08:23:32;0.90;;;0.67;;
37047;SDS011;23227;48.780;9.210;2024-03-17T08:26:36;1.30;;;1.00;;
37047;SDS011;23227;48.780;9.210;2024-03-17T08:29:39;0.70;;;0.70;;
37047;SDS011;23227;48.780;9.210;2024-03-17T08:32:40;1.75;;;0.90;;
37047;SDS011;23227;48.780;9.210;2024-03-17T08:35:51;1.33;;;0.70;;
37047;SDS011;23227;48.780;9.210;2024-03-17T08:38:53;1.13;;;0.87;;
37047;SDS011;23227;48.780;9.210;2024-03-17T08:41:55;2.27;;;1.10;;
37047;SDS011;23227;48.780;9.210;2024-03-17T08:44:58;0.80;;;0.70;;
37047;SDS011;23227;48.780;9.210;2024-03-17T08:48:00;0.80;;;0.80;;
37047;SDS011;23227;48.780;9.210;2024-03-17T08:51:02;1.27;;;0.80;;
37047;SDS011;23227;48.780;9.210;2024-03-17T08:54:05;2.50;;;0.80;;
37047;SDS011;23227;48.780;9.210;2024-03-17T08:57:06;0.80;;;0.53;;
37047;SDS011;23227;48.780;9.210;2024-03-17T09:00:10;0.83;;;0.80;;
37047;SDS011;23227;48.780;9.210;2024-03-17T09:03:12;1.83;;;0.90;;
37047;SDS011;23227;48.780;9.210;2024-03-17T09:06:15;0.68;;;0.50;;
37047;SDS011;23227;48.780;9.210;2024-03-17T09:09:19;0.70;;;0.53;;
37047;SDS011;23227;48.780;9.210;2024-03-17T09:12:20;0.60;;;0.60;;
37047;SDS011;23227;48.780;9.210;2024-03-17T09:15:23;0.80;;;0.70;;
37047;SDS011;23227;48.780;9.210;2024-03-17T09:18:25;0.97;;;0.80;;
37047;SDS011;23227;48.780;9.210;2024-03-17T09:21:27;1.73;;;0.70;;
37047;SDS011;23227;48.780;9.210;2024-03-17T09:24:29;1.53;;;0.80;;
37047;SDS011;23227;48.780;9.210;2024-03-17T09:27:31;1.07;;;0.83;;
37047;SDS011;23227;48.780;9.210;2024-03-17T09:30:34;1.70;;;1.03;;
37047;SDS011;23227;48.780;9.210;2024-03-17T09:36:37;0.80;;;0.70;;
37047;SDS011;23227;48.780;9.210;2024-03-17T09:39:38;2.07;;;1.23;;
37047;SDS011;23227;48.780;9.210;2024-03-17T09:42:40;1.93;;;0.70;;
37047;SDS011;23227;48.780;9.210;2024-03-17T09:45:44;3.40;;;0.70;;
37047;SDS011;23227;48.780;9.210;2024-03-17T09:48:46;1.50;;;0.70;;
37047;SDS011;23227;48.780;9.210;2024-03-17T09:51:47;0.97;;;0.60;;
37047;SDS011;23227;48.780;9.210;2024-03-17T09:54:53;0.57;;;0.55;;
37047;SDS011;23227;48.780;9.210;2024-03-17T09:57:57;1.63;;;0.57;;
37047;SDS011;23227;48.780;9.210;2024-03-17T10:01:00;1.20;;;0.80;;
37047;SDS011;23227;48.780;9.210;2024-03-17T10:04:02;1.70;;;0.97;;
37047;SDS011;23227;48.780;9.210;2024-03-17T10:07:05;0.90;;;0.70;;
37047;SDS011;23227;48.780;9.210;2024-03-17T10:10:10;1.00;;;0.67;;
37047;SDS011;23227;48.780;9.210;2024-03-17T10:13:13;1.17;;;0.67;;
37047;SDS011;23227;48.780;9.210;2024-03-17T10:16:24;0.80;;;0.55;;
37047;SDS011;23227;48.780;9.210;2024-03-17T10:19:26;0.60;;;0.60;;
37047;SDS011;23227;48.780;9.210;2024-03-17T10:22:29;0.85;;;0.60;;
37047;SDS011;23227;48.780;9.210;2024-03-17T10:25:31;0.60;;;0.60;;
37047;SDS011;23227;48.780;9.210;2024-03-17T10:28:33;3.40;;;0.80;;
37047;SDS011;23227;48.780;9.210;2024-03-17T10:31:39;0.53;;;0.50;;
37047;SDS011;23227;48.780;9.210;2024-03-17T10:34:41;0.87;;;0.60;;
37047;SDS011;23227;48.780;9.210;2024-03-17T10:37:53;0.88;;;0.80;;
37047;SDS011;23227;48.780;9.210;2024-03-17T10:40:54;0.87;;;0.60;;
37047;SDS011;23227;48.780;9.210;2024-03-17T10:43:56;1.00;;;0.70;;
37047;SDS011;23227;48.780;9.210;2024-03-17T10:47:01;1.08;;;0.75;;
37047;SDS011;23227;48.780;9.210;2024-03-17T10:50:03;1.10;;;0.70;;
37047;SDS011;23227;48.780;9.210;2024-03-17T10:53:08;1.00;;;0.60;;
37047;SDS011;23227;48.780;9.210;2024-03-17T10:56:09;0.67;;;0.60;;
37047;SDS011;23227;48.780;9.210;2024-03-17T10:59:12;1.90;;;0.77;;
37047;SDS011;23227;48.780;9.210;2024-03-17T11:02:20;1.08;;;0.60;;
37047;SDS011;23227;48.780;9.210;2024-03-17T11:05:24;1.13;;;0.47;;
37047;SDS011;23227;48.780;9.210;2024-03-17T11:08:30;1.80;;;0.90;;
37047;SDS011;23227;48.780;9.210;2024-03-17T11:11:36;0.60;;;0.60;;
37047;SDS011;23227;48.780;9.210;2024-03-17T11:14:40;0.70;;;0.70;;
37047;SDS011;23227;48.780;9.210;2024-03-17T11:17:43;1.20;;;0.60;;
37047;SDS011;23227;48.780;9.210;2024-03-17T11:20:55;0.55;;;0.50;;
37047;SDS011;23227;48.780;9.210;2024-03-17T11:23:59;1.20;;;0.60;;
37047;SDS011;23227;48.780;9.210;2024-03-17T11:27:14;1.03;;;0.60;;
37047;SDS011;23227;48.780;9.210;2024-03-17T11:30:42;1.17;;;0.70;;
37047;SDS011;23227;48.780;9.210;2024-03-17T11:33:49;0.65;;;0.60;;
37047;SDS011;23227;48.780;9.210;2024-03-17T11:36:50;0.97;;;0.67;;
37047;SDS011;23227;48.780;9.210;2024-03-17T11:43:02;0.50;;;0.50;;
37047;SDS011;23227;48.780;9.210;2024-03-17T11:46:06;0.70;;;0.50;;
37047;SDS011;23227;48.780;9.210;2024-03-17T11:49:18;1.93;;;0.60;;
37047;SDS011;23227;48.780;9.210;2024-03-17T11:52:22;1.00;;;0.70;;
37047;SDS011;23227;48.780;9.210;2024-03-17T11:55:25;0.98;;;0.77;;
37047;SDS011;23227;48.780;9.210;2024-03-17T11:58:26;0.97;;;0.90;;
37047;SDS011;23227;48.780;9.210;2024-03-17T12:01:28;0.80;;;0.57;;
37047;SDS011;23227;48.780;9.210;2024-03-17T12:04:31;0.82;;;0.80;;
37047;SDS011;23227;48.780;9.210;2024-03-17T12:07:32;1.40;;;0.60;;
37047;SDS011;23227;48.780;9.210;2024-03-17T12:10:34;0.60;;;0.50;;
37047;SDS011;23227;48.780;9.210;2024-03-17T12:13:35;0.90;;;0.50;;
37047;SDS011;23227;48.780;9.210;2024-03-17T12:16:37;0.90;;;0.60;;
37047;SDS011;23227;48.780;9.210;2024-03-17T12:19:39;0.83;;;0.70;;
37047;SDS011;23227;48.780;9.210;2024-03-17T12:22:42;0.77;;;0.50;;
37047;SDS011;23227;48.780;9.210;2024-03-17T12:25:46;1.23;;;0.70;;
37047;SDS011;23227;48.780;9.210;2024-03-17T12:28:48;1.03;;;0.50;;
37047;SDS011;23227;48.780;9.210;2024-03-17T12:31:50;0.80;;;0.40;;
37047;SDS011;23227;48.780;9.210;2024-03-17T12:34:54;0.73;;;0.70;;
37047;SDS011;23227;48.780;9.210;2024-03-17T12:37:57;1.17;;;0.50;;
37047;SDS011;23227;48.780;9.210;2024-03-17T12:40:59;0.87;;;0.60;;
37047;SDS011;23227;48.780;9.210;2024-03-17T12:44:00;1.10;;;0.80;;
37047;SDS011;23227;48.780;9.210;2024-03-17T12:47:01;0.37;;;0.37;;
37047;SDS011;23227;48.780;9.210;2024-03-17T12:50:10;3.25;;;0.80;;
37047;SDS011;23227;48.780;9.210;2024-03-17T12:53:15;1.00;;;0.60;;
37047;SDS011;23227;48.780;9.210;2024-03-17T12:56:22;0.60;;;0.60;;
37047;SDS011;23227;48.780;9.210;2024-03-17T12:59:42;1.07;;;0.53;;
37047;SDS011;23227;48.780;9.210;2024-03-17T13:03:02;2.20;;;0.70;;
37047;SDS011;23227;48.780;9.210;2024-03-17T13:06:08;2.30;;;0.50;;
37047;SDS011;23227;48.780;9.210;2024-03-17T13:09:10;3.40;;;0.90;;
37047;SDS011;23227;48.780;9.210;2024-03-17T13:12:13;1.43;;;0.50;;
37047;SDS011;23227;48.780;9.210;2024-03-17T13:15:16;1.80;;;0.70;;
37047;SDS011;23227;48.780;9.210;2024-03-17T13:18:19;0.83;;;0.40;;
37047;SDS011;23227;48.780;9.210;2024-03-17T13:21:22;1.00;;;0.50;;
37047;SDS011;23227;48.780;9.210;2024-03-17T13:24:24;0.88;;;0.40;;
37047;SDS011;23227;48.780;9.210;2024-03-17T13:27:26;1.93;;;0.60;;
37047;SDS011;23227;48.780;9.210;2024-03-17T13:30:27;0.67;;;0.67;;
37047;SDS011;23227;48.780;9.210;2024-03-17T13:33:29;1.03;;;0.60;;
37047;SDS011;23227;48.780;9.210;2024-03-17T13:36:32;3.17;;;0.80;;
37047;SDS011;23227;48.780;9.210;2024-03-17T13:42:36;1.17;;;0.80;;
37047;SDS011;23227;48.780;9.210;2024-03-17T13:45:38;2.37;;;1.10;;
37047;SDS011;23227;48.780;9.210;2024-03-17T13:51:43;0.90;;;0.40;;
37047;SDS011;23227;48.780;9.210;2024-03-17T13:54:45;2.30;;;0.68;;
37047;SDS011;23227;48.780;9.210;2024-03-17T13:57:49;1.25;;;0.57;;
37047;SDS011;23227;48.780;9.210;2024-03-17T14:00:52;0.90;;;0.40;;
37047;SDS011;23227;48.780;9.210;2024-03-17T14:03:55;4.50;;;0.50;;
37047;SDS011;23227;48.780;9.210;2024-03-17T14:06:58;0.70;;;0.50;;
37047;SDS011;23227;48.780;9.210;2024-03-17T14:10:00;2.17;;;0.60;;
37047;SDS011;23227;48.780;9.210;2024-03-17T14:13:01;1.07;;;0.70;;
37047;SDS011;23227;48.780;9.210;2024-03-17T14:16:03;2.37;;;0.60;;
37047;SDS011;23227;48.780;9.210;2024-03-17T14:19:05;3.73;;;0.60;;
37047;SDS011;23227;48.780;9.210;2024-03-17T14:22:08;1.63;;;0.53;;
37047;SDS011;23227;48.780;9.210;2024-03-17T14:25:10;2.50;;;0.60;;
37047;SDS011;23227;48.780;9.210;2024-03-17T14:28:15;2.10;;;0.40;;
37047;SDS011;23227;48.780;9.210;2024-03-17T14:31:17;1.27;;;0.60;;
37047;SDS011;23227;48.780;9.210;2024-03-17T14:34:19;4.90;;;0.60;;
37047;SDS011;23227;48.780;9.210;2024-03-17T14:37:22;4.43;;;0.60;;
37047;SDS011;23227;48.780;9.210;2024-03-17T14:43:25;2.40;;;0.50;;
37047;SDS011;23227;48.780;9.210;2024-03-17T14:46:27;0.87;;;0.73;;
37047;SDS011;23227;48.780;9.210;2024-03-17T14:49:29;0.77;;;0.53;;
37047;SDS011;23227;48.780;9.210;2024-03-17T14:52:33;0.85;;;0.63;;
37047;SDS011;23227;48.780;9.210;2024-03-17T14:55:35;4.17;;;0.87;;
37047;SDS011;23227;48.780;9.210;2024-03-17T14:58:37;1.13;;;0.70;;
37047;SDS011;23227;48.780;9.210;2024-03-17T15:01:38;2.53;;;1.10;;
37047;SDS011;23227;48.780;9.210;2024-03-17T15:04:40;1.47;;;0.90;;
37047;SDS011;23227;48.780;9.210;2024-03-17T15:07:43;5.07;;;0.90;;
37047;SDS011;23227;48.780;9.210;2024-03-17T15:10:45;2.25;;;0.90;;
37047;SDS011;23227;48.780;9.210;2024-03-17T15:13:46;3.73;;;0.60;;
37047;SDS011;23227;48.780;9.210;2024-03-17T15:16:49;2.85;;;0.80;;
37047;SDS011;23227;48.780;9.210;2024-03-17T15:19:50;4.33;;;0.90;;
37047;SDS011;23227;48.780;9.210;2024-03-17T15:22:53;1.13;;;0.60;;
37047;SDS011;23227;48.780;9.210;2024-03-17T15:25:58;5.00;;;0.68;;
37047;SDS011;23227;48.780;9.210;2024-03-17T15:29:00;4.87;;;0.70;;
37047;SDS011;23227;48.780;9.210;2024-03-17T15:32:03;1.90;;;0.87;;
37047;SDS011;23227;48.780;9.210;2024-03-17T15:35:05;2.60;;;1.00;;
37047;SDS011;23227;48.780;9.210;2024-03-17T15:38:09;3.90;;;0.80;;
37047;SDS011;23227;48.780;9.210;2024-03-17T15:41:11;1.73;;;0.77;;
37047;SDS011;23227;48.780;9.210;2024-03-17T15:44:13;2.87;;;0.70;;
37047;SDS011;23227;48.780;9.210;2024-03-17T15:50:17;4.00;;;0.80;;
37047;SDS011;23227;48.780;9.210;2024-03-17T15:53:20;4.80;;;0.70;;
37047;SDS011;23227;48.780;9.210;2024-03-17T15:56:23;9.87;;;1.10;;
37047;SDS011;23227;48.780;9.210;2024-03-17T15:59:24;7.73;;;1.23;;
37047;SDS011;23227;48.780;9.210;2024-03-17T16:02:26;2.73;;;0.67;;
37047;SDS011;23227;48.780;9.210;2024-03-17T16:05:28;1.80;;;0.73;;
37047;SDS011;23227;48.780;9.210;2024-03-17T16:08:31;4.03;;;0.70;;
37047;SDS011;23227;48.780;9.210;2024-03-17T16:14:35;3.93;;;0.70;;
37047;SDS011;23227;48.780;9.210;2024-03-17T16:17:38;4.53;;;0.60;;
37047;SDS011;23227;48.780;9.210;2024-03-17T16:27:16;2.80;;;0.82;;
37047;SDS011;23227;48.780;9.210;2024-03-17T16:30:18;3.80;;;0.60;;
37047;SDS011;23227;48.780;9.210;2024-03-17T16:33:20;2.30;;;0.57;;
37047;SDS011;23227;48.780;9.210;2024-03-17T16:36:22;2.57;;;1.13;;
37047;SDS011;23227;48.780;9.210;2024-03-17T16:39:27;4.70;;;3.20;;
37047;SDS011;23227;48.780;9.210;2024-03-17T16:42:30;9.00;;;3.73;;
37047;SDS011;23227;48.780;9.210;2024-03-17T16:45:32;6.57;;;2.67;;
37047;SDS011;23227;48.780;9.210;2024-03-17T16:48:37;8.13;;;2.87;;
37047;SDS011;23227;48.780;9.210;2024-03-17T16:51:39;7.90;;;2.37;;
37047;SDS011;23227;48.780;9.210;2024-03-17T16:54:42;5.60;;;2.30;;
37047;SDS011;23227;48.780;9.210;2024-03-17T16:57:43;7.90;;;2.10;;
37047;SDS011;23227;48.780;9.210;2024-03-17T17:00:45;5.23;;;1.90;;
37047;SDS011;23227;48.780;9.210;2024-03-17T17:03:47;9.97;;;1.80;;
37047;SDS011;23227;48.780;9.210;2024-03-17T17:06:48;7.67;;;2.13;;
37047;SDS011;23227;48.780;9.210;2024-03-17T17:09:51;11.90;;;1.83;;
37047;SDS011;23227;48.780;9.210;2024-03-17T17:12:53;3.73;;;1.30;;
37047;SDS011;23227;48.780;9.210;2024-03-17T17:15:55;3.63;;;1.30;;
37047;SDS011;23227;48.780;9.210;2024-03-17T17:18:58;4.03;;;1.75;;
37047;SDS011;23227;48.780;9.210;2024-03-17T17:22:03;6.80;;;1.53;;
37047;SDS011;23227;48.780;9.210;2024-03-17T17:25:07;2.85;;;1.35;;
37047;SDS011;23227;48.780;9.210;2024-03-17T17:28:15;3.03;;;1.20;;
37047;SDS011;23227;48.780;9.210;2024-03-17T17:31:16;4.60;;;1.40;;
37047;SDS011;23227;48.780;9.210;2024-03-17T17:34:18;4.80;;;1.40;;
37047;SDS011;23227;48.780;9.210;2024-03-17T17:37:20;5.50;;;1.30;;
37047;SDS011;23227;48.780;9.210;2024-03-17T17:40:23;2.03;;;1.10;;
37047;SDS011;23227;48.780;9.210;2024-03-17T17:43:24;5.75;;;1.67;;
37047;SDS011;23227;48.780;9.210;2024-03-17T17:46:26;6.37;;;1.60;;
37047;SDS011;23227;48.780;9.210;2024-03-17T17:49:28;4.67;;;1.30;;
37047;SDS011;23227;48.780;9.210;2024-03-17T17:52:30;3.65;;;1.10;;
37047;SDS011;23227;48.780;9.210;2024-03-17T17:55:33;3.63;;;1.30;;
37047;SDS011;23227;48.780;9.210;2024-03-17T17:58:35;4.63;;;1.33;;
37047;SDS011;23227;48.780;9.210;2024-03-17T18:01:37;3.60;;;1.48;;
37047;SDS011;23227;48.780;9.210;2024-03-17T18:04:39;4.83;;;1.53;;
37047;SDS011;23227;48.780;9.210;2024-03-17T18:07:40;4.73;;;2.03;;
37047;SDS011;23227;48.780;9.210;2024-03-17T18:10:44;7.60;;;3.47;;
37047;SDS011;23227;48.780;9.210;2024-03-17T18:13:47;5.57;;;2.92;;
37047;SDS011;23227;48.780;9.210;2024-03-17T18:16:49;8.47;;;2.97;;
37047;SDS011;23227;48.780;9.210;2024-03-17T18:19:51;4.73;;;1.93;;
37047;SDS011;23227;48.780;9.210;2024-03-17T18:22:53;2.93;;;2.13;;
37047;SDS011;23227;48.780;9.210;2024-03-17T18:25:56;7.07;;;3.67;;
37047;SDS011;23227;48.780;9.210;2024-03-17T18:28:58;6.53;;;2.10;;
37047;SDS011;23227;48.780;9.210;2024-03-17T18:31:59;6.33;;;2.00;;
37047;SDS011;23227;48.780;9.210;2024-03-17T18:35:03;3.50;;;1.90;;
37047;SDS011;23227;48.780;9.210;2024-03-17T18:38:05;5.13;;;2.03;;
37047;SDS011;23227;48.780;9.210;2024-03-17T18:41:09;6.93;;;2.67;;
37047;SDS011;23227;48.780;9.210;2024-03-17T18:44:11;5.13;;;2.70;;
37047;SDS011;23227;48.780;9.210;2024-03-17T18:47:13;5.77;;;2.87;;
37047;SDS011;23227;48.780;9.210;2024-03-17T18:50:15;5.90;;;2.43;;
37047;SDS011;23227;48.780;9.210;2024-03-17T18:53:17;7.40;;;2.23;;
37047;SDS011;23227;48.780;9.210;2024-03-17T18:56:21;5.63;;;2.10;;
37047;SDS011;23227;48.780;9.210;2024-03-17T18:59:23;5.10;;;2.05;;